»·PEaware :: N379BN KTOA-KVNY

N379BN :: KTOA-KVNY

FLIGHT INFORMATION

Flight Status: Arrived
Operator: Privately registered:
United States
More flights under this callsign
Pilot: Brian N. (26816)
Aircraft: CESSNA 182 SKYLANE
(C182)
More flights by this aircraft type
Origin: KTOA Zamperini
United States
Destination: KVNY Van Nuys
United States
More flights between these airports :: More routes between these airports
Route: LAX170 LIMBO V64 SMO125 SMO SMO317 CANOG
File this flight plan on PilotEdge
Remarks: ILSZ KVNY Missed then LDA-C into KVNY
Altitude:
(Current/Filed)
4,000ft
Speed:
(Current/Filed)
150kts
Departed: 14-Feb-21 07:05 PM
Arrived: 14-Feb-21 08:21 PM
Distance/Time
Traveled:
26nm/1:15
Distance/Time
To Go:
Arrived

Flight Plot

Page will automatically refresh every two minutes.

Flight plan parsing failed; only flown route is shown


Map Options




Map Legend


Flown Route
Filed Route
Departure Airport
Arrival Airport
Navaid (VOR, NDB)
Fix

Horizontal Profiles

Position Reports

Time Latitude Longitude Heading Altitude Ground
Speed
14-Feb-21 18:37 33.805103 -118.346210 217 106ft 0kts
14-Feb-21 18:38 33.805103 -118.346210 217 106ft 0kts
14-Feb-21 18:39 33.805103 -118.346210 217 106ft 0kts
14-Feb-21 18:40 33.805103 -118.346210 217 106ft 0kts
14-Feb-21 18:41 33.805103 -118.346210 217 106ft 0kts
14-Feb-21 18:42 33.805103 -118.346210 217 106ft 0kts
14-Feb-21 18:43 33.805103 -118.346210 217 106ft 0kts
14-Feb-21 18:44 33.805103 -118.346210 217 106ft 0kts
14-Feb-21 18:45 33.805103 -118.346210 217 106ft 0kts
14-Feb-21 18:46 33.805103 -118.346210 217 106ft 0kts
14-Feb-21 18:47 33.805103 -118.346210 217 106ft 0kts
14-Feb-21 18:48 33.805103 -118.346210 217 106ft 0kts
14-Feb-21 18:49 33.805103 -118.346210 217 106ft 0kts
14-Feb-21 18:50 33.805103 -118.346210 217 106ft 0kts
14-Feb-21 18:51 33.805103 -118.346210 217 106ft 0kts
14-Feb-21 18:52 33.805103 -118.346210 217 106ft 0kts
14-Feb-21 18:53 33.805103 -118.346210 217 106ft 0kts
14-Feb-21 18:54 33.805103 -118.346210 217 106ft 0kts
14-Feb-21 18:55 33.805103 -118.346210 217 106ft 0kts
14-Feb-21 18:56 33.805103 -118.346210 217 106ft 0kts
14-Feb-21 18:57 33.805095 -118.346216 217 106ft 0kts
14-Feb-21 18:58 33.805095 -118.346217 217 106ft 0kts
14-Feb-21 19:00 33.805092 -118.346219 217 106ft 0kts
14-Feb-21 19:01 33.803307 -118.342491 128 106ft 24kts
14-Feb-21 19:02 33.799025 -118.336045 129 106ft 26kts
14-Feb-21 19:03 33.799167 -118.333282 35 106ft 0kts
14-Feb-21 19:04 33.799180 -118.333270 35 106ft 3kts
14-Feb-21 19:05 33.804040 -118.339537 309 239ft 83kts
14-Feb-21 19:06 33.822915 -118.364811 304 1238ft 111kts
14-Feb-21 19:07 33.841842 -118.394264 301 2202ft 119kts
14-Feb-21 19:08 33.858809 -118.427381 301 3154ft 113kts
14-Feb-21 19:09 33.842825 -118.447825 171 3989ft 135kts
14-Feb-21 19:10 33.801240 -118.446062 186 4002ft 156kts
14-Feb-21 19:11 33.762870 -118.432217 111 3992ft 160kts
14-Feb-21 19:12 33.763796 -118.380796 82 3991ft 155kts
14-Feb-21 19:13 33.766310 -118.339392 79 3995ft 156kts
14-Feb-21 19:14 33.769162 -118.289646 80 3998ft 146kts
14-Feb-21 19:15 33.773789 -118.242560 41 3999ft 129kts
14-Feb-21 19:15 33.796977 -118.250006 318 3993ft 122kts
14-Feb-21 19:17 33.826605 -118.278245 338 4002ft 116kts
14-Feb-21 19:18 33.856313 -118.298703 318 4002ft 129kts
14-Feb-21 19:18 33.877426 -118.322611 320 4006ft 122kts
14-Feb-21 19:20 33.907433 -118.353261 321 4022ft 121kts
14-Feb-21 19:20 33.928652 -118.374633 321 4029ft 118kts
14-Feb-21 19:22 33.958368 -118.404499 321 4024ft 116kts
14-Feb-21 19:22 33.979562 -118.425849 321 4029ft 117kts
14-Feb-21 19:23 34.002766 -118.449207 322 3998ft 100kts
14-Feb-21 19:25 34.030324 -118.469656 332 4399ft 97kts
14-Feb-21 19:25 34.050259 -118.482500 333 4964ft 104kts
14-Feb-21 19:26 34.077128 -118.499776 333 4999ft 113kts
14-Feb-21 19:27 34.106799 -118.518852 333 4992ft 126kts
14-Feb-21 19:28 34.137173 -118.540590 334 4985ft 126kts
14-Feb-21 19:29 34.168976 -118.559243 333 4981ft 128kts
14-Feb-21 19:30 34.200075 -118.579117 333 4974ft 124kts
14-Feb-21 19:31 34.232608 -118.592047 351 4981ft 125kts
14-Feb-21 19:32 34.266996 -118.596813 352 4977ft 124kts
14-Feb-21 19:33 34.299529 -118.601193 351 4971ft 113kts
14-Feb-21 19:34 34.329700 -118.605790 351 4990ft 108kts
14-Feb-21 19:35 34.360430 -118.610267 350 4991ft 110kts
14-Feb-21 19:36 34.390214 -118.614396 352 4984ft 104kts
14-Feb-21 19:37 34.419525 -118.618317 352 4998ft 108kts
14-Feb-21 19:38 34.448827 -118.622348 352 4990ft 102kts
14-Feb-21 19:39 34.476962 -118.625846 358 5002ft 101kts
14-Feb-21 19:40 34.485909 -118.591721 82 5009ft 127kts
14-Feb-21 19:41 34.485655 -118.548402 81 5001ft 128kts
14-Feb-21 19:42 34.460253 -118.513945 141 5000ft 152kts
14-Feb-21 19:43 34.422850 -118.513627 194 5010ft 150kts
14-Feb-21 19:44 34.381756 -118.504576 175 4971ft 143kts
14-Feb-21 19:45 34.343700 -118.501296 177 4200ft 140kts
14-Feb-21 19:46 34.305016 -118.498087 186 3166ft 127kts
14-Feb-21 19:47 34.269575 -118.495667 176 2259ft 129kts
14-Feb-21 19:48 34.235575 -118.492716 173 1629ft 116kts
14-Feb-21 19:49 34.193895 -118.490446 183 1672ft 170kts
14-Feb-21 19:50 34.151828 -118.476055 148 2384ft 146kts
14-Feb-21 19:51 34.114728 -118.460010 166 3246ft 138kts
14-Feb-21 19:52 34.076758 -118.451528 192 4179ft 140kts
14-Feb-21 19:53 34.037855 -118.456916 188 4605ft 169kts
14-Feb-21 19:54 34.012480 -118.492838 267 4602ft 144kts
14-Feb-21 19:55 34.014459 -118.538214 285 4599ft 133kts
14-Feb-21 19:56 34.021799 -118.581408 299 4597ft 128kts
14-Feb-21 19:57 34.041247 -118.615723 295 4602ft 130kts
14-Feb-21 19:58 34.051049 -118.659205 288 4582ft 137kts
14-Feb-21 19:59 34.059144 -118.704435 284 4596ft 142kts
14-Feb-21 20:00 34.066377 -118.748599 287 4594ft 130kts
14-Feb-21 20:01 34.073335 -118.791486 288 4599ft 130kts
14-Feb-21 20:02 34.080110 -118.834998 289 4594ft 133kts
14-Feb-21 20:03 34.086171 -118.873506 291 4596ft 117kts
14-Feb-21 20:04 34.094156 -118.911232 308 4580ft 116kts
14-Feb-21 20:05 34.116474 -118.897458 55 4613ft 127kts
14-Feb-21 20:06 34.127932 -118.855697 61 4595ft 131kts
14-Feb-21 20:07 34.130840 -118.810407 79 4588ft 137kts
14-Feb-21 20:08 34.139032 -118.772815 30 4637ft 115kts
14-Feb-21 20:09 34.164638 -118.746397 37 4561ft 128kts
14-Feb-21 20:10 34.189073 -118.716761 54 4052ft 121kts
14-Feb-21 20:11 34.204977 -118.682508 61 3974ft 129kts
14-Feb-21 20:12 34.205547 -118.636205 84 4007ft 142kts
14-Feb-21 20:13 34.200703 -118.587809 122 4003ft 156kts
14-Feb-21 20:14 34.169264 -118.593597 272 3678ft 135kts
14-Feb-21 20:15 34.190048 -118.596008 72 3408ft 123kts
14-Feb-21 20:16 34.186844 -118.553684 90 3068ft 151kts
14-Feb-21 20:17 34.183601 -118.515111 84 2201ft 93kts
14-Feb-21 20:18 34.186093 -118.490466 38 1358ft 61kts
14-Feb-21 20:19 34.202766 -118.488516 357 962ft 60kts
14-Feb-21 20:20 34.213214 -118.489398 30 809ft 14kts
14-Feb-21 20:21 34.213435 -118.488980 74 809ft 0kts
14-Feb-21 20:22 34.211036 -118.487446 163 809ft 7kts
14-Feb-21 20:23 34.210880 -118.487741 270 809ft 0kts

Navigation Log

Ident Type
Flight plan parsing failed, navigation log unavailable